sensor_id;sensor_type;location;lat;lon;timestamp;pressure;altitude;pressure_sealevel;temperature;humidity
19736;BME280;32064;49.310;8.646;2022-07-09T00:00:05;101645.72;;;19.81;59.55
19736;BME280;32064;49.310;8.646;2022-07-09T00:02:30;101641.66;;;19.77;59.66
19736;BME280;32064;49.310;8.646;2022-07-09T00:04:56;101641.91;;;19.73;60.09
19736;BME280;32064;49.310;8.646;2022-07-09T00:07:21;101643.59;;;19.74;60.24
19736;BME280;32064;49.310;8.646;2022-07-09T00:09:46;101639.25;;;19.73;60.37
19736;BME280;32064;49.310;8.646;2022-07-09T00:12:12;101640.22;;;19.72;60.20
19736;BME280;32064;49.310;8.646;2022-07-09T00:14:37;101640.00;;;19.64;60.33
19736;BME280;32064;49.310;8.646;2022-07-09T00:17:03;101635.53;;;19.65;60.33
19736;BME280;32064;49.310;8.646;2022-07-09T00:19:28;101639.59;;;19.59;60.06
19736;BME280;32064;49.310;8.646;2022-07-09T00:21:54;101635.38;;;19.57;60.24
19736;BME280;32064;49.310;8.646;2022-07-09T00:24:19;101631.28;;;19.52;60.62
19736;BME280;32064;49.310;8.646;2022-07-09T00:26:45;101636.59;;;19.52;61.17
19736;BME280;32064;49.310;8.646;2022-07-09T00:29:10;101636.16;;;19.47;61.68
19736;BME280;32064;49.310;8.646;2022-07-09T00:31:36;101631.25;;;19.43;60.61
19736;BME280;32064;49.310;8.646;2022-07-09T00:34:01;101635.31;;;19.37;60.88
19736;BME280;32064;49.310;8.646;2022-07-09T00:36:27;101633.28;;;19.29;61.37
19736;BME280;32064;49.310;8.646;2022-07-09T00:38:52;101628.94;;;19.28;61.74
19736;BME280;32064;49.310;8.646;2022-07-09T00:41:18;101627.22;;;19.27;61.64
19736;BME280;32064;49.310;8.646;2022-07-09T00:43:47;101623.44;;;19.20;61.62
19736;BME280;32064;49.310;8.646;2022-07-09T00:46:17;101615.28;;;19.22;61.82
19736;BME280;32064;49.310;8.646;2022-07-09T00:48:43;101621.47;;;19.22;61.85
19736;BME280;32064;49.310;8.646;2022-07-09T00:51:09;101625.53;;;19.17;61.47
19736;BME280;32064;49.310;8.646;2022-07-09T00:53:37;101631.81;;;19.16;62.30
19736;BME280;32064;49.310;8.646;2022-07-09T00:56:03;101616.66;;;19.16;61.63
19736;BME280;32064;49.310;8.646;2022-07-09T00:58:29;101623.97;;;19.14;61.48
19736;BME280;32064;49.310;8.646;2022-07-09T01:00:55;101615.34;;;19.11;62.49
19736;BME280;32064;49.310;8.646;2022-07-09T01:03:21;101620.56;;;19.12;62.15
19736;BME280;32064;49.310;8.646;2022-07-09T01:05:48;101613.97;;;19.16;62.07
19736;BME280;32064;49.310;8.646;2022-07-09T01:08:14;101608.91;;;19.13;61.51
19736;BME280;32064;49.310;8.646;2022-07-09T01:10:40;101611.00;;;19.10;62.25
19736;BME280;32064;49.310;8.646;2022-07-09T01:13:05;101608.72;;;19.05;61.66
19736;BME280;32064;49.310;8.646;2022-07-09T01:15:32;101610.09;;;18.99;62.19
19736;BME280;32064;49.310;8.646;2022-07-09T01:17:57;101605.91;;;18.97;62.79
19736;BME280;32064;49.310;8.646;2022-07-09T01:20:27;101601.94;;;18.91;62.38
19736;BME280;32064;49.310;8.646;2022-07-09T01:22:57;101601.06;;;18.91;63.55
19736;BME280;32064;49.310;8.646;2022-07-09T01:28:01;101598.56;;;18.89;63.49
19736;BME280;32064;49.310;8.646;2022-07-09T01:30:27;101589.97;;;18.86;62.84
19736;BME280;32064;49.310;8.646;2022-07-09T01:32:54;101589.25;;;18.83;63.34
19736;BME280;32064;49.310;8.646;2022-07-09T01:35:20;101582.38;;;18.81;63.55
19736;BME280;32064;49.310;8.646;2022-07-09T01:37:46;101585.56;;;18.75;63.87
19736;BME280;32064;49.310;8.646;2022-07-09T01:40:12;101587.75;;;18.70;63.59
19736;BME280;32064;49.310;8.646;2022-07-09T01:42:37;101579.03;;;18.68;63.81
19736;BME280;32064;49.310;8.646;2022-07-09T01:45:03;101580.28;;;18.63;63.08
19736;BME280;32064;49.310;8.646;2022-07-09T01:47:29;101579.81;;;18.58;63.08
19736;BME280;32064;49.310;8.646;2022-07-09T01:49:54;101578.25;;;18.56;64.62
19736;BME280;32064;49.310;8.646;2022-07-09T01:52:20;101577.69;;;18.52;64.81
19736;BME280;32064;49.310;8.646;2022-07-09T01:54:45;101578.41;;;18.54;64.25
19736;BME280;32064;49.310;8.646;2022-07-09T01:57:10;101581.31;;;18.51;63.90
19736;BME280;32064;49.310;8.646;2022-07-09T01:59:36;101586.88;;;18.48;65.20
19736;BME280;32064;49.310;8.646;2022-07-09T02:02:01;101581.81;;;18.45;63.95
19736;BME280;32064;49.310;8.646;2022-07-09T02:04:27;101569.75;;;18.41;64.00
19736;BME280;32064;49.310;8.646;2022-07-09T02:06:52;101578.38;;;18.33;65.11
19736;BME280;32064;49.310;8.646;2022-07-09T02:09:18;101579.47;;;18.31;65.81
19736;BME280;32064;49.310;8.646;2022-07-09T02:11:43;101587.47;;;18.31;65.69
19736;BME280;32064;49.310;8.646;2022-07-09T02:14:09;101590.38;;;18.28;64.30
19736;BME280;32064;49.310;8.646;2022-07-09T02:16:34;101581.94;;;18.23;65.82
19736;BME280;32064;49.310;8.646;2022-07-09T02:19:00;101586.69;;;18.19;66.01
19736;BME280;32064;49.310;8.646;2022-07-09T02:21:25;101591.53;;;18.14;66.04
19736;BME280;32064;49.310;8.646;2022-07-09T02:23:50;101580.56;;;18.07;65.03
19736;BME280;32064;49.310;8.646;2022-07-09T02:26:18;101576.31;;;18.05;65.50
19736;BME280;32064;49.310;8.646;2022-07-09T02:28:43;101575.47;;;18.04;66.38
19736;BME280;32064;49.310;8.646;2022-07-09T02:31:08;101574.91;;;18.01;66.32
19736;BME280;32064;49.310;8.646;2022-07-09T02:33:34;101577.09;;;17.95;66.29
19736;BME280;32064;49.310;8.646;2022-07-09T02:35:59;101576.50;;;17.92;64.90
19736;BME280;32064;49.310;8.646;2022-07-09T02:38:25;101577.47;;;17.91;64.78
19736;BME280;32064;49.310;8.646;2022-07-09T02:40:50;101576.63;;;17.90;65.18
19736;BME280;32064;49.310;8.646;2022-07-09T02:43:16;101579.16;;;17.92;66.59
19736;BME280;32064;49.310;8.646;2022-07-09T02:45:41;101580.97;;;17.91;66.45
19736;BME280;32064;49.310;8.646;2022-07-09T02:48:08;101581.47;;;17.85;65.86
19736;BME280;32064;49.310;8.646;2022-07-09T02:50:33;101584.38;;;17.82;66.62
19736;BME280;32064;49.310;8.646;2022-07-09T02:52:58;101581.72;;;17.82;66.27
19736;BME280;32064;49.310;8.646;2022-07-09T02:55:24;101583.88;;;17.77;65.24
19736;BME280;32064;49.310;8.646;2022-07-09T02:57:49;101581.72;;;17.71;66.81
19736;BME280;32064;49.310;8.646;2022-07-09T03:00:15;101578.56;;;17.66;67.07
19736;BME280;32064;49.310;8.646;2022-07-09T03:02:40;101582.22;;;17.65;66.50
19736;BME280;32064;49.310;8.646;2022-07-09T03:05:06;101588.97;;;17.69;65.68
19736;BME280;32064;49.310;8.646;2022-07-09T03:07:32;101586.81;;;17.63;67.35
19736;BME280;32064;49.310;8.646;2022-07-09T03:09:57;101593.13;;;17.62;66.25
19736;BME280;32064;49.310;8.646;2022-07-09T03:12:22;101588.16;;;17.57;67.58
19736;BME280;32064;49.310;8.646;2022-07-09T03:14:48;101593.63;;;17.56;68.33
19736;BME280;32064;49.310;8.646;2022-07-09T03:17:13;101594.56;;;17.55;67.18
19736;BME280;32064;49.310;8.646;2022-07-09T03:19:39;101591.06;;;17.54;66.80
19736;BME280;32064;49.310;8.646;2022-07-09T03:22:04;101584.91;;;17.54;66.51
19736;BME280;32064;49.310;8.646;2022-07-09T03:24:30;101582.50;;;17.50;67.35
19736;BME280;32064;49.310;8.646;2022-07-09T03:26:56;101578.25;;;17.48;66.35
19736;BME280;32064;49.310;8.646;2022-07-09T03:29:21;101582.50;;;17.50;67.97
19736;BME280;32064;49.310;8.646;2022-07-09T03:31:47;101579.25;;;17.47;66.64
19736;BME280;32064;49.310;8.646;2022-07-09T03:34:13;101576.94;;;17.42;66.53
19736;BME280;32064;49.310;8.646;2022-07-09T03:36:38;101576.09;;;17.42;68.30
19736;BME280;32064;49.310;8.646;2022-07-09T03:39:04;101577.66;;;17.44;68.84
19736;BME280;32064;49.310;8.646;2022-07-09T03:41:29;101580.19;;;17.46;68.06
19736;BME280;32064;49.310;8.646;2022-07-09T03:43:55;101583.69;;;17.46;67.85
19736;BME280;32064;49.310;8.646;2022-07-09T03:46:20;101574.50;;;17.50;68.66
19736;BME280;32064;49.310;8.646;2022-07-09T03:48:45;101581.16;;;17.56;67.22
19736;BME280;32064;49.310;8.646;2022-07-09T03:51:12;101577.50;;;17.57;67.36
19736;BME280;32064;49.310;8.646;2022-07-09T03:53:38;101577.16;;;17.62;68.58
19736;BME280;32064;49.310;8.646;2022-07-09T03:56:03;101581.25;;;17.66;67.29
19736;BME280;32064;49.310;8.646;2022-07-09T03:58:29;101579.91;;;17.71;68.88
19736;BME280;32064;49.310;8.646;2022-07-09T04:00:54;101578.09;;;17.72;67.18
19736;BME280;32064;49.310;8.646;2022-07-09T04:03:20;101578.31;;;17.69;69.01
19736;BME280;32064;49.310;8.646;2022-07-09T04:05:45;101573.00;;;17.69;67.94
19736;BME280;32064;49.310;8.646;2022-07-09T04:08:11;101588.59;;;17.73;67.33
19736;BME280;32064;49.310;8.646;2022-07-09T04:10:36;101583.44;;;17.72;68.86
19736;BME280;32064;49.310;8.646;2022-07-09T04:13:02;101586.69;;;17.76;67.92
19736;BME280;32064;49.310;8.646;2022-07-09T04:15:27;101593.59;;;17.78;68.84
19736;BME280;32064;49.310;8.646;2022-07-09T04:17:53;101584.84;;;17.76;68.64
19736;BME280;32064;49.310;8.646;2022-07-09T04:20:18;101583.66;;;17.80;67.73
19736;BME280;32064;49.310;8.646;2022-07-09T04:22:44;101583.03;;;17.77;68.69
19736;BME280;32064;49.310;8.646;2022-07-09T04:25:09;101589.19;;;17.77;67.51
19736;BME280;32064;49.310;8.646;2022-07-09T04:27:35;101585.94;;;17.73;68.37
19736;BME280;32064;49.310;8.646;2022-07-09T04:30:05;101585.38;;;17.81;69.06
19736;BME280;32064;49.310;8.646;2022-07-09T04:32:31;101594.41;;;17.90;67.07
19736;BME280;32064;49.310;8.646;2022-07-09T04:34:57;101592.94;;;17.97;68.49
19736;BME280;32064;49.310;8.646;2022-07-09T04:37:22;101596.69;;;17.94;67.40
19736;BME280;32064;49.310;8.646;2022-07-09T04:39:48;101592.22;;;17.95;68.34
19736;BME280;32064;49.310;8.646;2022-07-09T04:42:13;101594.28;;;17.91;67.94
19736;BME280;32064;49.310;8.646;2022-07-09T04:44:39;101596.31;;;17.99;68.01
19736;BME280;32064;49.310;8.646;2022-07-09T04:47:05;101601.13;;;18.05;67.90
19736;BME280;32064;49.310;8.646;2022-07-09T04:49:30;101598.09;;;18.10;68.35
19736;BME280;32064;49.310;8.646;2022-07-09T04:51:56;101607.91;;;18.09;67.43
19736;BME280;32064;49.310;8.646;2022-07-09T04:54:21;101599.41;;;18.15;67.29
19736;BME280;32064;49.310;8.646;2022-07-09T04:56:47;101607.72;;;18.22;68.24
19736;BME280;32064;49.310;8.646;2022-07-09T04:59:12;101594.88;;;18.27;68.81
19736;BME280;32064;49.310;8.646;2022-07-09T05:01:38;101584.94;;;18.29;68.83
19736;BME280;32064;49.310;8.646;2022-07-09T05:04:03;101588.91;;;18.35;68.30
19736;BME280;32064;49.310;8.646;2022-07-09T05:06:29;101596.38;;;18.41;67.38
19736;BME280;32064;49.310;8.646;2022-07-09T05:08:54;101597.44;;;18.50;67.77
19736;BME280;32064;49.310;8.646;2022-07-09T05:11:19;101597.53;;;18.48;66.92
19736;BME280;32064;49.310;8.646;2022-07-09T05:13:45;101602.81;;;18.59;66.50
19736;BME280;32064;49.310;8.646;2022-07-09T05:16:12;101596.66;;;18.59;66.06
19736;BME280;32064;49.310;8.646;2022-07-09T05:18:37;101591.41;;;18.69;67.63
19736;BME280;32064;49.310;8.646;2022-07-09T05:21:03;101597.31;;;18.72;66.41
19736;BME280;32064;49.310;8.646;2022-07-09T05:23:28;101589.53;;;18.80;67.17
19736;BME280;32064;49.310;8.646;2022-07-09T05:25:54;101588.00;;;18.88;66.75
19736;BME280;32064;49.310;8.646;2022-07-09T05:28:19;101587.34;;;18.95;67.16
19736;BME280;32064;49.310;8.646;2022-07-09T05:30:45;101589.50;;;19.01;67.11
19736;BME280;32064;49.310;8.646;2022-07-09T05:33:10;101585.31;;;19.09;66.34
19736;BME280;32064;49.310;8.646;2022-07-09T05:35:36;101594.34;;;19.17;66.33
19736;BME280;32064;49.310;8.646;2022-07-09T05:38:01;101584.13;;;19.22;67.12
19736;BME280;32064;49.310;8.646;2022-07-09T05:40:27;101585.81;;;19.33;66.93
19736;BME280;32064;49.310;8.646;2022-07-09T05:42:52;101584.59;;;19.47;66.09
19736;BME280;32064;49.310;8.646;2022-07-09T05:45:23;101583.66;;;19.58;65.71
19736;BME280;32064;49.310;8.646;2022-07-09T05:47:48;101592.56;;;19.68;65.09
19736;BME280;32064;49.310;8.646;2022-07-09T05:50:14;101585.41;;;19.78;65.97
19736;BME280;32064;49.310;8.646;2022-07-09T05:52:39;101586.56;;;19.95;65.44
19736;BME280;32064;49.310;8.646;2022-07-09T05:55:05;101586.00;;;20.01;64.96
19736;BME280;32064;49.310;8.646;2022-07-09T05:57:30;101590.09;;;20.05;64.67
19736;BME280;32064;49.310;8.646;2022-07-09T05:59:57;101591.63;;;20.08;64.13
19736;BME280;32064;49.310;8.646;2022-07-09T06:02:22;101586.44;;;20.16;63.88
19736;BME280;32064;49.310;8.646;2022-07-09T06:04:48;101587.84;;;20.20;64.08
19736;BME280;32064;49.310;8.646;2022-07-09T06:07:14;101591.47;;;20.29;63.85
19736;BME280;32064;49.310;8.646;2022-07-09T06:09:40;101587.81;;;20.39;63.95
19736;BME280;32064;49.310;8.646;2022-07-09T06:12:05;101591.75;;;20.55;63.98
19736;BME280;32064;49.310;8.646;2022-07-09T06:14:31;101584.88;;;20.62;63.66
19736;BME280;32064;49.310;8.646;2022-07-09T06:16:58;101583.31;;;20.59;63.39
19736;BME280;32064;49.310;8.646;2022-07-09T06:19:26;101585.72;;;20.72;62.85
19736;BME280;32064;49.310;8.646;2022-07-09T06:21:51;101582.69;;;20.85;62.48
19736;BME280;32064;49.310;8.646;2022-07-09T06:24:17;101585.50;;;20.93;63.09
19736;BME280;32064;49.310;8.646;2022-07-09T06:26:42;101576.88;;;20.99;62.18
19736;BME280;32064;49.310;8.646;2022-07-09T06:29:08;101585.44;;;21.13;61.86
19736;BME280;32064;49.310;8.646;2022-07-09T06:31:33;101579.34;;;21.20;62.31
19736;BME280;32064;49.310;8.646;2022-07-09T06:34:00;101583.22;;;21.36;62.34
19736;BME280;32064;49.310;8.646;2022-07-09T06:36:25;101579.25;;;21.40;61.62
19736;BME280;32064;49.310;8.646;2022-07-09T06:38:50;101576.28;;;21.43;62.35
19736;BME280;32064;49.310;8.646;2022-07-09T06:41:35;101586.25;;;21.50;61.62
19736;BME280;32064;49.310;8.646;2022-07-09T06:44:00;101580.66;;;21.44;60.86
19736;BME280;32064;49.310;8.646;2022-07-09T06:46:26;101582.44;;;21.53;60.59
19736;BME280;32064;49.310;8.646;2022-07-09T06:48:51;101583.16;;;21.73;61.28
19736;BME280;32064;49.310;8.646;2022-07-09T06:51:17;101579.50;;;21.92;60.59
19736;BME280;32064;49.310;8.646;2022-07-09T06:53:42;101578.66;;;22.09;59.27
19736;BME280;32064;49.310;8.646;2022-07-09T06:56:08;101583.38;;;22.25;58.74
19736;BME280;32064;49.310;8.646;2022-07-09T06:58:33;101583.56;;;22.32;58.90
19736;BME280;32064;49.310;8.646;2022-07-09T07:00:58;101588.50;;;22.62;58.41
19736;BME280;32064;49.310;8.646;2022-07-09T07:03:24;101595.19;;;22.84;57.70
19736;BME280;32064;49.310;8.646;2022-07-09T07:05:49;101591.97;;;22.99;56.63
19736;BME280;32064;49.310;8.646;2022-07-09T07:08:15;101588.72;;;23.21;56.35
19736;BME280;32064;49.310;8.646;2022-07-09T07:10:40;101591.44;;;23.38;56.52
19736;BME280;32064;49.310;8.646;2022-07-09T07:13:05;101590.69;;;23.53;55.48
19736;BME280;32064;49.310;8.646;2022-07-09T07:15:31;101588.94;;;23.79;55.00
19736;BME280;32064;49.310;8.646;2022-07-09T07:17:56;101586.75;;;23.90;54.40
19736;BME280;32064;49.310;8.646;2022-07-09T07:20:22;101580.69;;;23.88;53.84
19736;BME280;32064;49.310;8.646;2022-07-09T07:22:50;101590.81;;;24.11;53.80
19736;BME280;32064;49.310;8.646;2022-07-09T07:25:16;101586.47;;;24.26;54.36
19736;BME280;32064;49.310;8.646;2022-07-09T07:27:41;101594.84;;;24.39;54.18
19736;BME280;32064;49.310;8.646;2022-07-09T07:30:07;101580.75;;;24.54;53.55
19736;BME280;32064;49.310;8.646;2022-07-09T07:32:32;101588.09;;;24.84;52.44
19736;BME280;32064;49.310;8.646;2022-07-09T07:34:58;101580.84;;;24.93;52.81
19736;BME280;32064;49.310;8.646;2022-07-09T07:37:23;101578.78;;;25.12;52.19
19736;BME280;32064;49.310;8.646;2022-07-09T07:39:49;101579.53;;;25.37;51.95
19736;BME280;32064;49.310;8.646;2022-07-09T07:42:14;101581.09;;;25.31;51.21
19736;BME280;32064;49.310;8.646;2022-07-09T07:44:41;101580.50;;;25.44;50.72
19736;BME280;32064;49.310;8.646;2022-07-09T07:47:07;101579.00;;;25.72;50.26
19736;BME280;32064;49.310;8.646;2022-07-09T07:49:32;101580.72;;;25.96;49.59
19736;BME280;32064;49.310;8.646;2022-07-09T07:51:58;101578.84;;;26.20;49.99
19736;BME280;32064;49.310;8.646;2022-07-09T07:54:23;101583.47;;;26.49;48.59
19736;BME280;32064;49.310;8.646;2022-07-09T07:56:48;101576.75;;;26.83;48.39
19736;BME280;32064;49.310;8.646;2022-07-09T07:59:16;101573.56;;;27.09;48.06
19736;BME280;32064;49.310;8.646;2022-07-09T08:01:41;101573.69;;;27.30;47.07
19736;BME280;32064;49.310;8.646;2022-07-09T08:04:07;101576.06;;;27.91;45.55
19736;BME280;32064;49.310;8.646;2022-07-09T08:06:32;101575.41;;;30.84;39.48
19736;BME280;32064;49.310;8.646;2022-07-09T08:09:02;101569.16;;;30.77;40.23
19736;BME280;32064;49.310;8.646;2022-07-09T08:11:28;101570.50;;;29.60;42.83
19736;BME280;32064;49.310;8.646;2022-07-09T08:13:54;101569.38;;;32.11;39.33
19736;BME280;32064;49.310;8.646;2022-07-09T08:16:19;101578.84;;;34.23;35.34
19736;BME280;32064;49.310;8.646;2022-07-09T08:18:45;101580.41;;;35.29;33.84
19736;BME280;32064;49.310;8.646;2022-07-09T08:21:11;101569.38;;;35.98;32.46
19736;BME280;32064;49.310;8.646;2022-07-09T08:23:36;101574.34;;;36.52;31.83
19736;BME280;32064;49.310;8.646;2022-07-09T08:26:26;101566.44;;;37.17;31.58
19736;BME280;32064;49.310;8.646;2022-07-09T08:28:53;101565.38;;;37.45;30.71
19736;BME280;32064;49.310;8.646;2022-07-09T08:31:19;101554.63;;;37.65;30.28
19736;BME280;32064;49.310;8.646;2022-07-09T08:33:46;101560.66;;;37.67;29.63
19736;BME280;32064;49.310;8.646;2022-07-09T08:36:12;101560.06;;;37.60;29.87
19736;BME280;32064;49.310;8.646;2022-07-09T08:38:37;101560.72;;;38.05;29.93
19736;BME280;32064;49.310;8.646;2022-07-09T08:41:04;101553.16;;;38.17;28.82
19736;BME280;32064;49.310;8.646;2022-07-09T08:43:37;101551.09;;;38.39;30.01
19736;BME280;32064;49.310;8.646;2022-07-09T08:46:04;101547.69;;;38.65;28.55
19736;BME280;32064;49.310;8.646;2022-07-09T08:48:35;101548.75;;;39.21;28.42
19736;BME280;32064;49.310;8.646;2022-07-09T08:51:01;101544.69;;;39.49;28.01
19736;BME280;32064;49.310;8.646;2022-07-09T08:53:27;101534.78;;;39.59;27.66
19736;BME280;32064;49.310;8.646;2022-07-09T08:55:54;101530.09;;;39.69;27.33
19736;BME280;32064;49.310;8.646;2022-07-09T08:58:20;101538.94;;;39.77;27.72
19736;BME280;32064;49.310;8.646;2022-07-09T09:00:47;101527.06;;;39.91;26.85
19736;BME280;32064;49.310;8.646;2022-07-09T09:03:13;101520.72;;;39.91;26.64
19736;BME280;32064;49.310;8.646;2022-07-09T09:05:39;101531.50;;;39.82;27.35
19736;BME280;32064;49.310;8.646;2022-07-09T09:08:20;101523.47;;;39.65;26.09
19736;BME280;32064;49.310;8.646;2022-07-09T09:10:47;101521.28;;;39.72;26.87
19736;BME280;32064;49.310;8.646;2022-07-09T09:13:15;101519.19;;;37.69;27.99
19736;BME280;32064;49.310;8.646;2022-07-09T09:15:43;101511.00;;;37.74;27.54
19736;BME280;32064;49.310;8.646;2022-07-09T09:18:09;101509.25;;;37.63;28.66
19736;BME280;32064;49.310;8.646;2022-07-09T09:20:35;101496.25;;;35.53;30.05
19736;BME280;32064;49.310;8.646;2022-07-09T09:23:01;101504.06;;;34.52;31.72
19736;BME280;32064;49.310;8.646;2022-07-09T09:25:30;101500.22;;;33.41;33.23
19736;BME280;32064;49.310;8.646;2022-07-09T09:27:57;101499.66;;;33.20;32.92
19736;BME280;32064;49.310;8.646;2022-07-09T09:30:24;101503.41;;;35.26;31.24
19736;BME280;32064;49.310;8.646;2022-07-09T09:32:58;101494.19;;;35.78;30.03
19736;BME280;32064;49.310;8.646;2022-07-09T09:35:28;101499.59;;;36.23;30.17
19736;BME280;32064;49.310;8.646;2022-07-09T09:37:55;101492.13;;;36.18;29.67
19736;BME280;32064;49.310;8.646;2022-07-09T09:40:21;101492.72;;;36.81;28.97
19736;BME280;32064;49.310;8.646;2022-07-09T09:42:48;101495.50;;;37.08;28.74
19736;BME280;32064;49.310;8.646;2022-07-09T09:45:13;101479.13;;;36.70;28.93
19736;BME280;32064;49.310;8.646;2022-07-09T09:47:49;101478.47;;;37.34;27.47
19736;BME280;32064;49.310;8.646;2022-07-09T09:50:19;101480.75;;;38.06;27.82
19736;BME280;32064;49.310;8.646;2022-07-09T09:52:46;101484.97;;;38.19;27.47
19736;BME280;32064;49.310;8.646;2022-07-09T09:55:13;101480.06;;;36.19;29.24
19736;BME280;32064;49.310;8.646;2022-07-09T09:57:40;101475.03;;;35.03;30.23
19736;BME280;32064;49.310;8.646;2022-07-09T10:00:07;101485.06;;;34.98;30.41
19736;BME280;32064;49.310;8.646;2022-07-09T10:02:32;101477.06;;;36.38;29.09
19736;BME280;32064;49.310;8.646;2022-07-09T10:04:59;101483.75;;;36.47;28.67
19736;BME280;32064;49.310;8.646;2022-07-09T10:07:25;101469.22;;;35.00;30.67
19736;BME280;32064;49.310;8.646;2022-07-09T10:09:57;101470.66;;;33.91;30.87
19736;BME280;32064;49.310;8.646;2022-07-09T10:14:55;101463.03;;;35.50;29.84
19736;BME280;32064;49.310;8.646;2022-07-09T10:17:23;101465.91;;;34.57;31.00
19736;BME280;32064;49.310;8.646;2022-07-09T10:19:56;101460.03;;;34.77;29.97
19736;BME280;32064;49.310;8.646;2022-07-09T10:22:37;101461.78;;;34.08;31.48
19736;BME280;32064;49.310;8.646;2022-07-09T10:25:04;101465.44;;;33.78;31.27
19736;BME280;32064;49.310;8.646;2022-07-09T10:27:43;101465.28;;;33.31;32.49
19736;BME280;32064;49.310;8.646;2022-07-09T10:33:04;101459.06;;;31.70;34.22
19736;BME280;32064;49.310;8.646;2022-07-09T10:35:30;101464.78;;;31.37;35.01
19736;BME280;32064;49.310;8.646;2022-07-09T10:37:56;101468.56;;;30.84;35.42
19736;BME280;32064;49.310;8.646;2022-07-09T10:40:22;101462.44;;;30.30;36.68
19736;BME280;32064;49.310;8.646;2022-07-09T10:43:01;101455.34;;;30.03;37.10
19736;BME280;32064;49.310;8.646;2022-07-09T10:47:59;101457.03;;;29.70;38.03
19736;BME280;32064;49.310;8.646;2022-07-09T10:50:27;101449.50;;;29.66;38.68
19736;BME280;32064;49.310;8.646;2022-07-09T10:52:53;101457.22;;;29.69;39.23
19736;BME280;32064;49.310;8.646;2022-07-09T10:55:20;101455.97;;;29.71;38.52
19736;BME280;32064;49.310;8.646;2022-07-09T10:57:45;101444.94;;;29.73;38.69
19736;BME280;32064;49.310;8.646;2022-07-09T11:00:19;101447.00;;;31.91;37.48
19736;BME280;32064;49.310;8.646;2022-07-09T11:03:02;101434.66;;;33.59;34.44
19736;BME280;32064;49.310;8.646;2022-07-09T11:05:29;101433.03;;;34.29;34.15
19736;BME280;32064;49.310;8.646;2022-07-09T11:08:06;101440.28;;;34.11;32.78
19736;BME280;32064;49.310;8.646;2022-07-09T11:10:34;101436.06;;;34.96;32.70
19736;BME280;32064;49.310;8.646;2022-07-09T11:13:00;101432.06;;;35.49;31.69
19736;BME280;32064;49.310;8.646;2022-07-09T11:15:31;101424.25;;;36.48;30.44
19736;BME280;32064;49.310;8.646;2022-07-09T11:20:37;101421.81;;;35.40;30.63
19736;BME280;32064;49.310;8.646;2022-07-09T11:23:03;101416.00;;;34.79;31.75
19736;BME280;32064;49.310;8.646;2022-07-09T11:25:28;101417.97;;;34.67;32.66
19736;BME280;32064;49.310;8.646;2022-07-09T11:27:55;101416.34;;;35.57;31.21
19736;BME280;32064;49.310;8.646;2022-07-09T11:30:21;101401.47;;;35.52;30.11
19736;BME280;32064;49.310;8.646;2022-07-09T11:32:46;101409.19;;;35.22;30.62
19736;BME280;32064;49.310;8.646;2022-07-09T11:35:12;101399.25;;;35.04;30.86
19736;BME280;32064;49.310;8.646;2022-07-09T11:37:48;101403.66;;;34.24;32.08
19736;BME280;32064;49.310;8.646;2022-07-09T11:40:17;101400.41;;;34.39;32.10
19736;BME280;32064;49.310;8.646;2022-07-09T11:42:43;101397.47;;;34.81;31.29
19736;BME280;32064;49.310;8.646;2022-07-09T11:45:09;101390.91;;;34.82;31.05
19736;BME280;32064;49.310;8.646;2022-07-09T11:47:36;101383.34;;;34.32;32.05
19736;BME280;32064;49.310;8.646;2022-07-09T11:50:09;101381.94;;;33.70;31.40
19736;BME280;32064;49.310;8.646;2022-07-09T11:52:46;101385.63;;;33.52;32.75
19736;BME280;32064;49.310;8.646;2022-07-09T11:55:15;101382.88;;;33.41;32.74
19736;BME280;32064;49.310;8.646;2022-07-09T11:57:53;101381.47;;;33.08;32.80
19736;BME280;32064;49.310;8.646;2022-07-09T12:00:24;101374.00;;;32.73;33.51
19736;BME280;32064;49.310;8.646;2022-07-09T12:02:50;101366.06;;;32.53;33.17
19736;BME280;32064;49.310;8.646;2022-07-09T12:05:27;101366.38;;;32.27;34.53
19736;BME280;32064;49.310;8.646;2022-07-09T12:07:56;101359.78;;;31.97;34.84
19736;BME280;32064;49.310;8.646;2022-07-09T12:10:39;101359.78;;;31.72;34.66
19736;BME280;32064;49.310;8.646;2022-07-09T12:13:06;101359.97;;;31.77;34.47
19736;BME280;32064;49.310;8.646;2022-07-09T12:15:32;101356.22;;;32.34;34.91
19736;BME280;32064;49.310;8.646;2022-07-09T12:18:00;101356.44;;;32.32;35.33
19736;BME280;32064;49.310;8.646;2022-07-09T12:20:28;101352.50;;;32.95;34.89
19736;BME280;32064;49.310;8.646;2022-07-09T12:22:54;101338.78;;;33.02;33.28
19736;BME280;32064;49.310;8.646;2022-07-09T12:25:20;101333.34;;;33.25;33.42
19736;BME280;32064;49.310;8.646;2022-07-09T12:27:46;101338.81;;;33.49;32.62
19736;BME280;32064;49.310;8.646;2022-07-09T12:30:12;101331.81;;;33.29;34.12
19736;BME280;32064;49.310;8.646;2022-07-09T12:32:39;101330.03;;;32.81;33.71
19736;BME280;32064;49.310;8.646;2022-07-09T12:35:06;101331.81;;;32.76;33.84
19736;BME280;32064;49.310;8.646;2022-07-09T12:37:32;101333.44;;;32.47;35.37
19736;BME280;32064;49.310;8.646;2022-07-09T12:39:57;101327.16;;;32.46;34.50
19736;BME280;32064;49.310;8.646;2022-07-09T12:42:23;101329.91;;;32.76;33.29
19736;BME280;32064;49.310;8.646;2022-07-09T12:44:49;101314.97;;;32.79;33.99
19736;BME280;32064;49.310;8.646;2022-07-09T12:47:15;101308.78;;;32.72;33.21
19736;BME280;32064;49.310;8.646;2022-07-09T12:49:41;101308.63;;;32.67;34.11
19736;BME280;32064;49.310;8.646;2022-07-09T12:52:06;101297.78;;;32.78;34.07
19736;BME280;32064;49.310;8.646;2022-07-09T12:54:34;101302.72;;;32.70;32.72
19736;BME280;32064;49.310;8.646;2022-07-09T12:57:00;101299.13;;;32.57;34.14
19736;BME280;32064;49.310;8.646;2022-07-09T12:59:25;101308.84;;;32.35;33.54